sensor_id;sensor_type;location;lat;lon;timestamp;P1;durP1;ratioP1;P2;durP2;ratioP2
35394;SDS011;21500;45.308;9.488;2022-11-20T00:01:49;75.65;;;41.00;;
35394;SDS011;21500;45.308;9.488;2022-11-20T00:04:15;64.10;;;37.00;;
35394;SDS011;21500;45.308;9.488;2022-11-20T00:06:40;74.60;;;42.83;;
35394;SDS011;21500;45.308;9.488;2022-11-20T00:09:06;67.82;;;40.25;;
35394;SDS011;21500;45.308;9.488;2022-11-20T00:11:34;65.65;;;37.58;;
35394;SDS011;21500;45.308;9.488;2022-11-20T00:14:02;67.43;;;40.55;;
35394;SDS011;21500;45.308;9.488;2022-11-20T00:16:29;77.93;;;41.75;;
35394;SDS011;21500;45.308;9.488;2022-11-20T00:18:56;68.95;;;38.95;;
35394;SDS011;21500;45.308;9.488;2022-11-20T00:21:23;69.55;;;39.92;;
35394;SDS011;21500;45.308;9.488;2022-11-20T00:23:51;70.63;;;39.42;;
35394;SDS011;21500;45.308;9.488;2022-11-20T00:26:19;73.35;;;39.88;;
35394;SDS011;21500;45.308;9.488;2022-11-20T00:28:52;67.03;;;42.63;;
35394;SDS011;21500;45.308;9.488;2022-11-20T00:31:22;73.70;;;40.42;;
35394;SDS011;21500;45.308;9.488;2022-11-20T00:33:48;72.47;;;39.15;;
35394;SDS011;21500;45.308;9.488;2022-11-20T00:36:16;72.93;;;39.97;;
35394;SDS011;21500;45.308;9.488;2022-11-20T00:38:43;71.63;;;40.72;;
35394;SDS011;21500;45.308;9.488;2022-11-20T00:41:10;75.93;;;40.97;;
35394;SDS011;21500;45.308;9.488;2022-11-20T00:43:38;69.25;;;38.75;;
35394;SDS011;21500;45.308;9.488;2022-11-20T00:46:05;73.55;;;40.60;;
35394;SDS011;21500;45.308;9.488;2022-11-20T00:48:33;69.18;;;38.80;;
35394;SDS011;21500;45.308;9.488;2022-11-20T00:50:59;66.78;;;39.47;;
35394;SDS011;21500;45.308;9.488;2022-11-20T00:53:25;71.20;;;40.10;;
35394;SDS011;21500;45.308;9.488;2022-11-20T00:56:05;71.45;;;43.03;;
35394;SDS011;21500;45.308;9.488;2022-11-20T00:58:34;76.95;;;42.90;;
35394;SDS011;21500;45.308;9.488;2022-11-20T01:01:05;75.43;;;40.95;;
35394;SDS011;21500;45.308;9.488;2022-11-20T01:03:41;75.30;;;41.50;;
35394;SDS011;21500;45.308;9.488;2022-11-20T01:06:14;80.82;;;40.83;;
35394;SDS011;21500;45.308;9.488;2022-11-20T01:08:42;78.38;;;41.90;;
35394;SDS011;21500;45.308;9.488;2022-11-20T01:11:09;78.05;;;40.15;;
35394;SDS011;21500;45.308;9.488;2022-11-20T01:13:37;77.85;;;42.08;;
35394;SDS011;21500;45.308;9.488;2022-11-20T01:18:29;68.18;;;40.03;;
35394;SDS011;21500;45.308;9.488;2022-11-20T01:20:55;75.03;;;40.75;;
35394;SDS011;21500;45.308;9.488;2022-11-20T01:23:26;74.32;;;42.13;;
35394;SDS011;21500;45.308;9.488;2022-11-20T01:25:51;62.25;;;37.95;;
35394;SDS011;21500;45.308;9.488;2022-11-20T01:28:17;67.30;;;38.03;;
35394;SDS011;21500;45.308;9.488;2022-11-20T01:30:43;65.97;;;37.33;;
35394;SDS011;21500;45.308;9.488;2022-11-20T01:33:09;63.75;;;38.30;;
35394;SDS011;21500;45.308;9.488;2022-11-20T01:35:34;62.97;;;36.78;;
35394;SDS011;21500;45.308;9.488;2022-11-20T01:38:00;62.38;;;36.88;;
35394;SDS011;21500;45.308;9.488;2022-11-20T01:40:26;62.03;;;36.75;;
35394;SDS011;21500;45.308;9.488;2022-11-20T01:42:53;68.93;;;36.17;;
35394;SDS011;21500;45.308;9.488;2022-11-20T01:48:16;59.33;;;37.47;;
35394;SDS011;21500;45.308;9.488;2022-11-20T01:50:43;68.50;;;39.85;;
35394;SDS011;21500;45.308;9.488;2022-11-20T01:53:11;68.70;;;39.72;;
35394;SDS011;21500;45.308;9.488;2022-11-20T01:55:44;65.03;;;36.83;;
35394;SDS011;21500;45.308;9.488;2022-11-20T01:58:13;68.43;;;39.10;;
35394;SDS011;21500;45.308;9.488;2022-11-20T02:00:40;68.78;;;38.47;;
35394;SDS011;21500;45.308;9.488;2022-11-20T02:03:09;75.82;;;39.15;;
35394;SDS011;21500;45.308;9.488;2022-11-20T02:06:12;64.07;;;38.53;;
35394;SDS011;21500;45.308;9.488;2022-11-20T02:08:50;74.20;;;40.13;;
35394;SDS011;21500;45.308;9.488;2022-11-20T02:11:17;71.97;;;39.35;;
35394;SDS011;21500;45.308;9.488;2022-11-20T02:13:43;68.95;;;39.55;;
35394;SDS011;21500;45.308;9.488;2022-11-20T02:19:08;66.53;;;38.20;;
35394;SDS011;21500;45.308;9.488;2022-11-20T02:24:26;78.18;;;41.70;;
35394;SDS011;21500;45.308;9.488;2022-11-20T02:26:53;69.40;;;39.05;;
35394;SDS011;21500;45.308;9.488;2022-11-20T02:29:25;83.10;;;42.00;;
35394;SDS011;21500;45.308;9.488;2022-11-20T02:31:55;88.55;;;41.88;;
35394;SDS011;21500;45.308;9.488;2022-11-20T02:34:21;108.63;;;44.17;;
35394;SDS011;21500;45.308;9.488;2022-11-20T02:36:47;88.70;;;41.40;;
35394;SDS011;21500;45.308;9.488;2022-11-20T02:39:15;166.23;;;43.28;;
35394;SDS011;21500;45.308;9.488;2022-11-20T02:41:46;154.45;;;45.45;;
35394;SDS011;21500;45.308;9.488;2022-11-20T02:44:12;168.45;;;47.58;;
35394;SDS011;21500;45.308;9.488;2022-11-20T02:46:38;170.52;;;44.10;;
35394;SDS011;21500;45.308;9.488;2022-11-20T02:49:07;179.40;;;48.38;;
35394;SDS011;21500;45.308;9.488;2022-11-20T02:51:32;213.40;;;47.15;;
35394;SDS011;21500;45.308;9.488;2022-11-20T02:54:13;102.47;;;44.40;;
35394;SDS011;21500;45.308;9.488;2022-11-20T02:56:39;86.57;;;39.67;;
35394;SDS011;21500;45.308;9.488;2022-11-20T02:59:06;103.47;;;39.78;;
35394;SDS011;21500;45.308;9.488;2022-11-20T03:04:26;150.65;;;38.05;;
35394;SDS011;21500;45.308;9.488;2022-11-20T03:06:52;301.42;;;42.60;;
35394;SDS011;21500;45.308;9.488;2022-11-20T03:09:25;188.40;;;37.53;;
35394;SDS011;21500;45.308;9.488;2022-11-20T03:11:52;141.93;;;39.83;;
35394;SDS011;21500;45.308;9.488;2022-11-20T03:14:18;237.55;;;42.25;;
35394;SDS011;21500;45.308;9.488;2022-11-20T03:16:49;115.53;;;44.20;;
35394;SDS011;21500;45.308;9.488;2022-11-20T03:19:20;145.57;;;37.42;;
35394;SDS011;21500;45.308;9.488;2022-11-20T03:21:46;132.57;;;39.55;;
35394;SDS011;21500;45.308;9.488;2022-11-20T03:24:12;104.53;;;40.53;;
35394;SDS011;21500;45.308;9.488;2022-11-20T03:26:40;123.97;;;45.22;;
35394;SDS011;21500;45.308;9.488;2022-11-20T03:29:08;165.50;;;41.55;;
35394;SDS011;21500;45.308;9.488;2022-11-20T03:31:36;118.90;;;40.25;;
35394;SDS011;21500;45.308;9.488;2022-11-20T03:34:06;102.30;;;37.65;;
35394;SDS011;21500;45.308;9.488;2022-11-20T03:36:32;91.65;;;41.22;;
35394;SDS011;21500;45.308;9.488;2022-11-20T03:38:59;65.30;;;37.83;;
35394;SDS011;21500;45.308;9.488;2022-11-20T03:41:30;106.88;;;43.50;;
35394;SDS011;21500;45.308;9.488;2022-11-20T03:44:01;125.07;;;40.20;;
35394;SDS011;21500;45.308;9.488;2022-11-20T03:46:27;117.68;;;41.03;;
35394;SDS011;21500;45.308;9.488;2022-11-20T03:48:54;64.38;;;38.42;;
35394;SDS011;21500;45.308;9.488;2022-11-20T03:51:21;75.07;;;39.70;;
35394;SDS011;21500;45.308;9.488;2022-11-20T03:53:50;85.70;;;39.15;;
35394;SDS011;21500;45.308;9.488;2022-11-20T03:56:25;138.20;;;38.15;;
35394;SDS011;21500;45.308;9.488;2022-11-20T03:59:01;115.38;;;36.47;;
35394;SDS011;21500;45.308;9.488;2022-11-20T04:01:31;72.88;;;35.13;;
35394;SDS011;21500;45.308;9.488;2022-11-20T04:04:00;79.28;;;36.17;;
35394;SDS011;21500;45.308;9.488;2022-11-20T04:06:37;85.10;;;34.92;;
35394;SDS011;21500;45.308;9.488;2022-11-20T04:09:13;72.28;;;34.25;;
35394;SDS011;21500;45.308;9.488;2022-11-20T04:11:40;125.60;;;37.88;;
35394;SDS011;21500;45.308;9.488;2022-11-20T04:14:11;82.85;;;37.25;;
35394;SDS011;21500;45.308;9.488;2022-11-20T04:16:41;100.85;;;39.05;;
35394;SDS011;21500;45.308;9.488;2022-11-20T04:19:14;160.57;;;37.30;;
35394;SDS011;21500;45.308;9.488;2022-11-20T04:21:41;74.25;;;36.25;;
35394;SDS011;21500;45.308;9.488;2022-11-20T04:24:09;81.50;;;36.78;;
35394;SDS011;21500;45.308;9.488;2022-11-20T04:26:35;152.63;;;42.38;;
35394;SDS011;21500;45.308;9.488;2022-11-20T04:29:02;82.35;;;31.77;;
35394;SDS011;21500;45.308;9.488;2022-11-20T04:31:33;116.75;;;33.08;;
35394;SDS011;21500;45.308;9.488;2022-11-20T05:11:54;62.15;;;30.52;;
35394;SDS011;21500;45.308;9.488;2022-11-20T05:18:08;93.97;;;30.17;;
35394;SDS011;21500;45.308;9.488;2022-11-20T05:20:35;52.38;;;28.25;;
35394;SDS011;21500;45.308;9.488;2022-11-20T05:24:07;69.05;;;21.52;;
35394;SDS011;21500;45.308;9.488;2022-11-20T05:26:53;62.25;;;27.67;;
35394;SDS011;21500;45.308;9.488;2022-11-20T05:29:18;91.00;;;28.65;;
35394;SDS011;21500;45.308;9.488;2022-11-20T05:35:33;83.55;;;28.48;;
35394;SDS011;21500;45.308;9.488;2022-11-20T05:38:05;221.85;;;34.90;;
35394;SDS011;21500;45.308;9.488;2022-11-20T05:40:31;62.33;;;27.25;;
35394;SDS011;21500;45.308;9.488;2022-11-20T05:43:01;75.60;;;29.23;;
35394;SDS011;21500;45.308;9.488;2022-11-20T05:45:29;80.72;;;29.92;;
35394;SDS011;21500;45.308;9.488;2022-11-20T05:48:05;60.80;;;27.05;;
35394;SDS011;21500;45.308;9.488;2022-11-20T05:51:15;65.85;;;25.67;;
35394;SDS011;21500;45.308;9.488;2022-11-20T05:53:43;74.43;;;27.73;;
35394;SDS011;21500;45.308;9.488;2022-11-20T05:56:14;70.80;;;23.83;;
35394;SDS011;21500;45.308;9.488;2022-11-20T05:58:48;128.50;;;28.30;;
35394;SDS011;21500;45.308;9.488;2022-11-20T06:27:11;60.90;;;20.95;;
35394;SDS011;21500;45.308;9.488;2022-11-20T08:22:42;39.35;;;27.52;;
35394;SDS011;21500;45.308;9.488;2022-11-20T09:30:37;12.98;;;10.60;;
35394;SDS011;21500;45.308;9.488;2022-11-20T09:54:14;11.18;;;9.75;;
35394;SDS011;21500;45.308;9.488;2022-11-20T09:56:47;13.45;;;10.48;;
35394;SDS011;21500;45.308;9.488;2022-11-20T09:59:31;13.50;;;10.00;;
35394;SDS011;21500;45.308;9.488;2022-11-20T10:02:12;12.32;;;9.52;;
35394;SDS011;21500;45.308;9.488;2022-11-20T10:05:25;12.50;;;10.27;;
35394;SDS011;21500;45.308;9.488;2022-11-20T10:32:11;14.55;;;12.82;;
35394;SDS011;21500;45.308;9.488;2022-11-20T10:34:59;14.80;;;12.07;;
35394;SDS011;21500;45.308;9.488;2022-11-20T10:41:16;18.23;;;15.52;;
35394;SDS011;21500;45.308;9.488;2022-11-20T10:44:00;16.73;;;14.00;;
35394;SDS011;21500;45.308;9.488;2022-11-20T10:46:45;16.30;;;13.75;;
35394;SDS011;21500;45.308;9.488;2022-11-20T10:49:12;20.15;;;16.13;;
35394;SDS011;21500;45.308;9.488;2022-11-20T10:51:52;15.57;;;13.98;;
35394;SDS011;21500;45.308;9.488;2022-11-20T10:57:25;15.55;;;13.88;;
35394;SDS011;21500;45.308;9.488;2022-11-20T11:00:06;16.35;;;13.30;;
35394;SDS011;21500;45.308;9.488;2022-11-20T11:02:49;17.30;;;13.20;;
35394;SDS011;21500;45.308;9.488;2022-11-20T11:07:56;14.55;;;12.05;;
35394;SDS011;21500;45.308;9.488;2022-11-20T11:10:25;13.63;;;12.20;;
35394;SDS011;21500;45.308;9.488;2022-11-20T11:13:02;17.50;;;15.25;;
35394;SDS011;21500;45.308;9.488;2022-11-20T11:15:38;12.98;;;11.57;;
35394;SDS011;21500;45.308;9.488;2022-11-20T11:18:22;17.88;;;12.95;;
35394;SDS011;21500;45.308;9.488;2022-11-20T11:21:01;19.48;;;17.15;;
35394;SDS011;21500;45.308;9.488;2022-11-20T11:23:48;15.13;;;13.02;;
35394;SDS011;21500;45.308;9.488;2022-11-20T11:27:11;13.73;;;11.68;;
35394;SDS011;21500;45.308;9.488;2022-11-20T11:35:57;13.57;;;12.18;;
35394;SDS011;21500;45.308;9.488;2022-11-20T11:43:58;14.45;;;12.25;;
35394;SDS011;21500;45.308;9.488;2022-11-20T11:47:04;17.98;;;13.27;;
35394;SDS011;21500;45.308;9.488;2022-11-20T11:52:30;15.95;;;13.52;;
35394;SDS011;21500;45.308;9.488;2022-11-20T12:04:43;15.50;;;13.35;;
35394;SDS011;21500;45.308;9.488;2022-11-20T12:09:12;18.73;;;13.90;;
35394;SDS011;21500;45.308;9.488;2022-11-20T12:12:16;15.13;;;12.75;;
35394;SDS011;21500;45.308;9.488;2022-11-20T12:18:23;18.23;;;14.00;;
35394;SDS011;21500;45.308;9.488;2022-11-20T12:30:16;15.32;;;13.70;;
35394;SDS011;21500;45.308;9.488;2022-11-20T12:48:19;15.02;;;12.60;;
35394;SDS011;21500;45.308;9.488;2022-11-20T12:50:17;15.93;;;12.23;;
35394;SDS011;21500;45.308;9.488;2022-11-20T12:53:10;12.93;;;11.35;;
35394;SDS011;21500;45.308;9.488;2022-11-20T13:07:03;13.55;;;11.55;;
35394;SDS011;21500;45.308;9.488;2022-11-20T13:09:36;14.18;;;11.90;;
35394;SDS011;21500;45.308;9.488;2022-11-20T13:15:15;14.88;;;11.85;;
35394;SDS011;21500;45.308;9.488;2022-11-20T13:17:58;11.95;;;10.25;;
35394;SDS011;21500;45.308;9.488;2022-11-20T13:20:25;14.13;;;12.27;;
35394;SDS011;21500;45.308;9.488;2022-11-20T13:22:55;15.93;;;12.15;;
35394;SDS011;21500;45.308;9.488;2022-11-20T13:25:32;17.48;;;11.15;;
35394;SDS011;21500;45.308;9.488;2022-11-20T13:28:25;21.27;;;15.43;;
35394;SDS011;21500;45.308;9.488;2022-11-20T13:30:55;13.93;;;12.10;;
35394;SDS011;21500;45.308;9.488;2022-11-20T13:36:02;12.55;;;10.85;;
35394;SDS011;21500;45.308;9.488;2022-11-20T13:43:48;15.35;;;11.45;;
35394;SDS011;21500;45.308;9.488;2022-11-20T13:46:17;13.50;;;11.55;;
35394;SDS011;21500;45.308;9.488;2022-11-20T13:48:52;12.25;;;10.95;;
35394;SDS011;21500;45.308;9.488;2022-11-20T14:18:20;12.75;;;11.23;;
35394;SDS011;21500;45.308;9.488;2022-11-20T14:21:30;11.10;;;10.00;;
35394;SDS011;21500;45.308;9.488;2022-11-20T14:34:46;13.68;;;10.90;;
35394;SDS011;21500;45.308;9.488;2022-11-20T14:40:30;12.85;;;10.82;;
35394;SDS011;21500;45.308;9.488;2022-11-20T15:58:13;14.60;;;11.38;;
35394;SDS011;21500;45.308;9.488;2022-11-20T16:00:50;13.30;;;11.23;;
35394;SDS011;21500;45.308;9.488;2022-11-20T16:03:51;15.55;;;11.00;;
35394;SDS011;21500;45.308;9.488;2022-11-20T16:06:17;14.48;;;11.48;;
35394;SDS011;21500;45.308;9.488;2022-11-20T16:08:45;15.32;;;11.05;;
35394;SDS011;21500;45.308;9.488;2022-11-20T16:11:14;12.43;;;10.32;;
35394;SDS011;21500;45.308;9.488;2022-11-20T16:13:42;16.02;;;11.82;;
35394;SDS011;21500;45.308;9.488;2022-11-20T16:16:32;17.92;;;12.38;;
35394;SDS011;21500;45.308;9.488;2022-11-20T16:19:02;14.73;;;11.13;;
35394;SDS011;21500;45.308;9.488;2022-11-20T16:21:31;14.23;;;11.05;;
35394;SDS011;21500;45.308;9.488;2022-11-20T16:23:58;15.65;;;12.18;;
35394;SDS011;21500;45.308;9.488;2022-11-20T16:26:29;17.50;;;11.70;;
35394;SDS011;21500;45.308;9.488;2022-11-20T16:28:55;15.43;;;12.57;;
35394;SDS011;21500;45.308;9.488;2022-11-20T16:31:23;12.88;;;10.45;;
35394;SDS011;21500;45.308;9.488;2022-11-20T16:33:49;14.75;;;9.40;;
35394;SDS011;21500;45.308;9.488;2022-11-20T16:36:16;11.57;;;10.15;;
35394;SDS011;21500;45.308;9.488;2022-11-20T16:38:52;11.75;;;9.95;;
35394;SDS011;21500;45.308;9.488;2022-11-20T16:41:22;15.05;;;11.30;;
35394;SDS011;21500;45.308;9.488;2022-11-20T16:43:51;13.48;;;10.65;;
35394;SDS011;21500;45.308;9.488;2022-11-20T16:46:20;17.40;;;11.80;;
35394;SDS011;21500;45.308;9.488;2022-11-20T16:49:00;17.77;;;11.63;;
35394;SDS011;21500;45.308;9.488;2022-11-20T16:51:30;16.35;;;12.40;;
35394;SDS011;21500;45.308;9.488;2022-11-20T16:54:00;14.88;;;11.52;;
35394;SDS011;21500;45.308;9.488;2022-11-20T16:59:07;13.98;;;10.68;;
35394;SDS011;21500;45.308;9.488;2022-11-20T17:01:33;14.20;;;11.77;;
35394;SDS011;21500;45.308;9.488;2022-11-20T17:04:06;16.00;;;12.27;;
35394;SDS011;21500;45.308;9.488;2022-11-20T17:06:33;15.00;;;11.93;;
35394;SDS011;21500;45.308;9.488;2022-11-20T17:09:04;18.17;;;13.32;;
35394;SDS011;21500;45.308;9.488;2022-11-20T17:11:33;16.90;;;11.95;;
35394;SDS011;21500;45.308;9.488;2022-11-20T17:14:01;14.57;;;12.18;;
35394;SDS011;21500;45.308;9.488;2022-11-20T17:19:00;15.35;;;11.73;;
35394;SDS011;21500;45.308;9.488;2022-11-20T17:21:27;15.55;;;12.25;;
35394;SDS011;21500;45.308;9.488;2022-11-20T17:23:54;17.88;;;13.27;;
35394;SDS011;21500;45.308;9.488;2022-11-20T17:26:21;21.08;;;14.13;;
35394;SDS011;21500;45.308;9.488;2022-11-20T17:29:04;15.32;;;13.15;;
35394;SDS011;21500;45.308;9.488;2022-11-20T17:31:32;17.55;;;12.10;;
35394;SDS011;21500;45.308;9.488;2022-11-20T17:34:00;16.05;;;11.95;;
35394;SDS011;21500;45.308;9.488;2022-11-20T17:36:29;14.88;;;11.85;;
35394;SDS011;21500;45.308;9.488;2022-11-20T17:38:58;19.58;;;14.02;;
35394;SDS011;21500;45.308;9.488;2022-11-20T17:41:26;16.48;;;12.48;;
35394;SDS011;21500;45.308;9.488;2022-11-20T17:43:56;20.23;;;14.27;;
35394;SDS011;21500;45.308;9.488;2022-11-20T17:46:27;18.42;;;16.48;;
35394;SDS011;21500;45.308;9.488;2022-11-20T17:48:56;16.80;;;14.50;;
35394;SDS011;21500;45.308;9.488;2022-11-20T17:51:26;18.58;;;15.88;;
35394;SDS011;21500;45.308;9.488;2022-11-20T17:53:56;15.95;;;13.68;;
35394;SDS011;21500;45.308;9.488;2022-11-20T17:56:35;18.08;;;14.30;;
35394;SDS011;21500;45.308;9.488;2022-11-20T17:59:21;17.38;;;14.80;;
35394;SDS011;21500;45.308;9.488;2022-11-20T18:01:47;15.60;;;12.45;;
35394;SDS011;21500;45.308;9.488;2022-11-20T18:04:17;17.10;;;12.85;;
35394;SDS011;21500;45.308;9.488;2022-11-20T18:06:43;15.57;;;12.40;;
35394;SDS011;21500;45.308;9.488;2022-11-20T18:09:09;13.50;;;11.80;;
35394;SDS011;21500;45.308;9.488;2022-11-20T18:11:38;15.55;;;11.60;;
35394;SDS011;21500;45.308;9.488;2022-11-20T18:14:05;13.50;;;11.57;;
35394;SDS011;21500;45.308;9.488;2022-11-20T18:16:59;15.82;;;11.57;;
35394;SDS011;21500;45.308;9.488;2022-11-20T18:19:43;18.08;;;13.32;;
35394;SDS011;21500;45.308;9.488;2022-11-20T18:22:10;13.82;;;10.65;;
35394;SDS011;21500;45.308;9.488;2022-11-20T18:24:37;23.00;;;19.15;;
35394;SDS011;21500;45.308;9.488;2022-11-20T18:27:04;22.35;;;19.95;;
35394;SDS011;21500;45.308;9.488;2022-11-20T18:29:31;19.10;;;14.13;;
35394;SDS011;21500;45.308;9.488;2022-11-20T18:31:58;17.58;;;12.65;;
35394;SDS011;21500;45.308;9.488;2022-11-20T18:34:24;13.50;;;10.75;;
35394;SDS011;21500;45.308;9.488;2022-11-20T18:36:51;16.27;;;11.95;;
35394;SDS011;21500;45.308;9.488;2022-11-20T18:39:17;15.82;;;11.60;;
35394;SDS011;21500;45.308;9.488;2022-11-20T18:41:42;21.58;;;12.85;;
35394;SDS011;21500;45.308;9.488;2022-11-20T18:44:30;18.83;;;13.45;;
35394;SDS011;21500;45.308;9.488;2022-11-20T18:47:20;21.48;;;15.55;;
35394;SDS011;21500;45.308;9.488;2022-11-20T18:49:47;22.60;;;17.98;;
35394;SDS011;21500;45.308;9.488;2022-11-20T18:52:46;28.02;;;20.75;;
35394;SDS011;21500;45.308;9.488;2022-11-20T18:55:12;24.63;;;19.00;;
35394;SDS011;21500;45.308;9.488;2022-11-20T18:57:40;21.88;;;17.10;;
35394;SDS011;21500;45.308;9.488;2022-11-20T19:00:06;28.42;;;20.52;;
35394;SDS011;21500;45.308;9.488;2022-11-20T19:02:33;22.00;;;18.13;;
35394;SDS011;21500;45.308;9.488;2022-11-20T19:04:58;20.33;;;16.25;;
35394;SDS011;21500;45.308;9.488;2022-11-20T19:07:24;19.83;;;15.90;;
35394;SDS011;21500;45.308;9.488;2022-11-20T19:09:51;21.20;;;15.00;;
35394;SDS011;21500;45.308;9.488;2022-11-20T19:12:17;19.50;;;15.43;;
35394;SDS011;21500;45.308;9.488;2022-11-20T19:14:44;20.67;;;16.17;;
35394;SDS011;21500;45.308;9.488;2022-11-20T19:17:10;18.45;;;13.38;;
35394;SDS011;21500;45.308;9.488;2022-11-20T19:19:38;17.17;;;14.10;;
35394;SDS011;21500;45.308;9.488;2022-11-20T19:22:04;17.52;;;14.30;;
35394;SDS011;21500;45.308;9.488;2022-11-20T19:24:39;19.95;;;16.70;;
35394;SDS011;21500;45.308;9.488;2022-11-20T19:27:06;21.55;;;15.77;;
35394;SDS011;21500;45.308;9.488;2022-11-20T19:29:57;19.00;;;16.02;;
35394;SDS011;21500;45.308;9.488;2022-11-20T19:32:27;23.10;;;18.30;;
35394;SDS011;21500;45.308;9.488;2022-11-20T19:34:54;24.63;;;18.00;;
35394;SDS011;21500;45.308;9.488;2022-11-20T19:37:20;20.48;;;16.92;;
35394;SDS011;21500;45.308;9.488;2022-11-20T19:39:46;22.92;;;16.25;;
35394;SDS011;21500;45.308;9.488;2022-11-20T19:42:15;25.52;;;19.38;;
35394;SDS011;21500;45.308;9.488;2022-11-20T19:44:41;24.25;;;17.98;;
35394;SDS011;21500;45.308;9.488;2022-11-20T19:47:06;23.17;;;17.08;;
35394;SDS011;21500;45.308;9.488;2022-11-20T19:49:32;22.60;;;16.52;;
35394;SDS011;21500;45.308;9.488;2022-11-20T19:51:58;20.08;;;16.02;;
35394;SDS011;21500;45.308;9.488;2022-11-20T19:54:27;21.45;;;16.38;;
35394;SDS011;21500;45.308;9.488;2022-11-20T19:56:53;19.20;;;14.82;;
35394;SDS011;21500;45.308;9.488;2022-11-20T19:59:19;16.92;;;13.77;;
35394;SDS011;21500;45.308;9.488;2022-11-20T20:01:44;17.45;;;13.57;;
35394;SDS011;21500;45.308;9.488;2022-11-20T20:04:13;16.95;;;12.85;;
35394;SDS011;21500;45.308;9.488;2022-11-20T20:06:40;18.35;;;14.80;;
35394;SDS011;21500;45.308;9.488;2022-11-20T20:09:07;18.08;;;12.82;;
35394;SDS011;21500;45.308;9.488;2022-11-20T20:11:35;18.60;;;15.52;;
35394;SDS011;21500;45.308;9.488;2022-11-20T20:14:01;18.75;;;14.68;;
35394;SDS011;21500;45.308;9.488;2022-11-20T20:16:37;20.30;;;14.90;;
35394;SDS011;21500;45.308;9.488;2022-11-20T20:19:06;22.13;;;15.90;;
35394;SDS011;21500;45.308;9.488;2022-11-20T20:21:36;19.67;;;15.75;;
35394;SDS011;21500;45.308;9.488;2022-11-20T20:24:03;20.90;;;15.38;;
35394;SDS011;21500;45.308;9.488;2022-11-20T20:26:30;19.85;;;15.93;;
35394;SDS011;21500;45.308;9.488;2022-11-20T20:28:57;22.88;;;18.17;;
35394;SDS011;21500;45.308;9.488;2022-11-20T20:31:24;22.45;;;15.90;;
35394;SDS011;21500;45.308;9.488;2022-11-20T20:33:52;20.55;;;16.83;;
35394;SDS011;21500;45.308;9.488;2022-11-20T20:36:20;26.13;;;19.15;;
35394;SDS011;21500;45.308;9.488;2022-11-20T20:38:46;24.33;;;18.60;;
35394;SDS011;21500;45.308;9.488;2022-11-20T20:41:18;24.92;;;19.17;;
35394;SDS011;21500;45.308;9.488;2022-11-20T20:43:44;23.42;;;18.38;;
35394;SDS011;21500;45.308;9.488;2022-11-20T20:46:28;23.83;;;18.73;;
35394;SDS011;21500;45.308;9.488;2022-11-20T20:48:54;24.50;;;17.77;;
35394;SDS011;21500;45.308;9.488;2022-11-20T20:51:20;28.52;;;19.02;;
35394;SDS011;21500;45.308;9.488;2022-11-20T20:53:47;28.90;;;21.08;;
35394;SDS011;21500;45.308;9.488;2022-11-20T20:56:12;25.33;;;19.85;;
35394;SDS011;21500;45.308;9.488;2022-11-20T20:58:38;33.05;;;23.42;;
35394;SDS011;21500;45.308;9.488;2022-11-20T21:01:06;36.65;;;25.52;;
35394;SDS011;21500;45.308;9.488;2022-11-20T21:03:33;29.27;;;22.30;;
35394;SDS011;21500;45.308;9.488;2022-11-20T21:06:00;26.67;;;22.05;;
35394;SDS011;21500;45.308;9.488;2022-11-20T21:08:27;28.17;;;21.98;;
35394;SDS011;21500;45.308;9.488;2022-11-20T21:10:54;25.00;;;19.25;;
35394;SDS011;21500;45.308;9.488;2022-11-20T21:13:24;24.92;;;19.95;;
35394;SDS011;21500;45.308;9.488;2022-11-20T21:15:50;28.73;;;21.27;;
35394;SDS011;21500;45.308;9.488;2022-11-20T21:18:16;31.02;;;21.08;;
35394;SDS011;21500;45.308;9.488;2022-11-20T21:20:44;24.10;;;19.80;;
35394;SDS011;21500;45.308;9.488;2022-11-20T21:23:32;26.00;;;20.67;;
35394;SDS011;21500;45.308;9.488;2022-11-20T21:26:02;27.20;;;20.10;;
35394;SDS011;21500;45.308;9.488;2022-11-20T21:28:30;26.83;;;20.73;;
35394;SDS011;21500;45.308;9.488;2022-11-20T21:31:07;29.83;;;22.60;;
35394;SDS011;21500;45.308;9.488;2022-11-20T21:36:03;24.80;;;19.52;;
35394;SDS011;21500;45.308;9.488;2022-11-20T21:38:30;27.50;;;21.02;;
35394;SDS011;21500;45.308;9.488;2022-11-20T21:40:56;28.75;;;21.15;;
35394;SDS011;21500;45.308;9.488;2022-11-20T21:43:22;29.10;;;21.58;;
35394;SDS011;21500;45.308;9.488;2022-11-20T21:45:48;26.23;;;19.80;;
35394;SDS011;21500;45.308;9.488;2022-11-20T21:48:15;25.08;;;20.23;;
35394;SDS011;21500;45.308;9.488;2022-11-20T21:50:41;27.92;;;22.40;;
35394;SDS011;21500;45.308;9.488;2022-11-20T21:53:07;24.90;;;20.13;;
35394;SDS011;21500;45.308;9.488;2022-11-20T21:55:33;25.65;;;21.48;;
35394;SDS011;21500;45.308;9.488;2022-11-20T21:57:58;26.85;;;20.77;;
35394;SDS011;21500;45.308;9.488;2022-11-20T22:00:24;26.95;;;19.75;;
35394;SDS011;21500;45.308;9.488;2022-11-20T22:02:50;28.65;;;21.33;;
35394;SDS011;21500;45.308;9.488;2022-11-20T22:05:16;27.30;;;20.15;;
35394;SDS011;21500;45.308;9.488;2022-11-20T22:07:42;28.00;;;21.63;;
35394;SDS011;21500;45.308;9.488;2022-11-20T22:10:09;23.60;;;19.20;;
35394;SDS011;21500;45.308;9.488;2022-11-20T22:12:44;33.17;;;24.02;;
35394;SDS011;21500;45.308;9.488;2022-11-20T22:15:10;30.77;;;22.13;;
35394;SDS011;21500;45.308;9.488;2022-11-20T22:17:36;24.67;;;20.98;;
35394;SDS011;21500;45.308;9.488;2022-11-20T22:20:20;29.10;;;23.92;;
35394;SDS011;21500;45.308;9.488;2022-11-20T22:22:46;26.75;;;20.83;;
35394;SDS011;21500;45.308;9.488;2022-11-20T22:25:12;26.23;;;21.25;;
35394;SDS011;21500;45.308;9.488;2022-11-20T22:27:37;27.95;;;22.15;;
35394;SDS011;21500;45.308;9.488;2022-11-20T22:30:03;30.63;;;23.08;;
35394;SDS011;21500;45.308;9.488;2022-11-20T22:32:29;28.60;;;22.95;;
35394;SDS011;21500;45.308;9.488;2022-11-20T22:34:55;29.05;;;22.08;;
35394;SDS011;21500;45.308;9.488;2022-11-20T22:37:21;31.45;;;22.75;;
35394;SDS011;21500;45.308;9.488;2022-11-20T22:39:47;26.05;;;20.88;;
35394;SDS011;21500;45.308;9.488;2022-11-20T22:42:12;30.88;;;22.42;;
35394;SDS011;21500;45.308;9.488;2022-11-20T22:44:38;27.48;;;23.05;;
35394;SDS011;21500;45.308;9.488;2022-11-20T22:47:04;27.13;;;22.35;;
35394;SDS011;21500;45.308;9.488;2022-11-20T22:49:30;27.80;;;22.98;;
35394;SDS011;21500;45.308;9.488;2022-11-20T22:51:56;27.77;;;22.50;;
35394;SDS011;21500;45.308;9.488;2022-11-20T22:54:22;26.05;;;22.85;;
35394;SDS011;21500;45.308;9.488;2022-11-20T22:56:48;26.38;;;20.80;;
35394;SDS011;21500;45.308;9.488;2022-11-20T22:59:14;33.33;;;22.60;;
35394;SDS011;21500;45.308;9.488;2022-11-20T23:01:42;29.83;;;21.73;;
35394;SDS011;21500;45.308;9.488;2022-11-20T23:04:09;27.80;;;23.10;;
35394;SDS011;21500;45.308;9.488;2022-11-20T23:06:35;33.55;;;24.30;;
35394;SDS011;21500;45.308;9.488;2022-11-20T23:09:05;30.85;;;25.00;;
35394;SDS011;21500;45.308;9.488;2022-11-20T23:11:31;27.67;;;23.05;;
35394;SDS011;21500;45.308;9.488;2022-11-20T23:13:59;27.30;;;22.40;;
35394;SDS011;21500;45.308;9.488;2022-11-20T23:16:27;30.20;;;21.85;;
35394;SDS011;21500;45.308;9.488;2022-11-20T23:19:04;27.23;;;22.30;;
35394;SDS011;21500;45.308;9.488;2022-11-20T23:21:32;30.92;;;23.25;;